Shawanee, Tennessee
Current Conditions -  °F | °C
As of 3:15 PM on Wednesday 26 Nov 2014 (Local Time) from K0VG Reporting Station
Clear Clear  
Wind Chill: 50°   Ceiling: Unl
Heat Index: 50°   Visibility: 10mi
Dew Point: 23°   Wind: 8mph
Humidity: 35%   Direction: 230°SW
Pressure: 30"   Gusts: NA
Location:  36.58°N, 83.64°W
Report Text: K0VG 262015Z AUTO 23007KT 10SM CLR 10/M05 A3000 RMK AO2
Loading
Personal Weather Stations






























Interactive Weather Map New forecast layout! Learn more

10-Day Weather Forecast

Advertisements
Track Severe Weather on mobile